sensor_id;sensor_type;location;lat;lon;timestamp;P1;durP1;ratioP1;P2;durP2;ratioP2
13975;SDS011;7062;49.792;9.946;2023-08-20T00:00:25;7.73;;;7.00;;
13975;SDS011;7062;49.792;9.946;2023-08-20T00:02:51;7.33;;;6.73;;
13975;SDS011;7062;49.792;9.946;2023-08-20T00:05:28;8.13;;;7.20;;
13975;SDS011;7062;49.792;9.946;2023-08-20T00:07:55;6.63;;;5.93;;
13975;SDS011;7062;49.792;9.946;2023-08-20T00:10:20;5.87;;;5.47;;
13975;SDS011;7062;49.792;9.946;2023-08-20T00:12:46;9.20;;;6.47;;
13975;SDS011;7062;49.792;9.946;2023-08-20T00:15:12;9.17;;;7.17;;
13975;SDS011;7062;49.792;9.946;2023-08-20T00:17:38;13.00;;;7.40;;
13975;SDS011;7062;49.792;9.946;2023-08-20T00:20:05;10.20;;;6.60;;
13975;SDS011;7062;49.792;9.946;2023-08-20T00:22:36;8.20;;;7.27;;
13975;SDS011;7062;49.792;9.946;2023-08-20T00:25:02;10.73;;;6.43;;
13975;SDS011;7062;49.792;9.946;2023-08-20T00:27:30;12.53;;;6.93;;
13975;SDS011;7062;49.792;9.946;2023-08-20T00:29:56;8.10;;;7.37;;
13975;SDS011;7062;49.792;9.946;2023-08-20T00:32:21;7.43;;;6.77;;
13975;SDS011;7062;49.792;9.946;2023-08-20T00:34:48;7.63;;;6.93;;
13975;SDS011;7062;49.792;9.946;2023-08-20T00:37:14;6.90;;;6.27;;
13975;SDS011;7062;49.792;9.946;2023-08-20T00:39:43;8.10;;;7.30;;
13975;SDS011;7062;49.792;9.946;2023-08-20T00:42:09;7.30;;;5.93;;
13975;SDS011;7062;49.792;9.946;2023-08-20T00:44:35;8.53;;;7.73;;
13975;SDS011;7062;49.792;9.946;2023-08-20T00:47:01;11.03;;;6.90;;
13975;SDS011;7062;49.792;9.946;2023-08-20T00:49:28;8.17;;;7.47;;
13975;SDS011;7062;49.792;9.946;2023-08-20T00:51:54;8.17;;;7.30;;
13975;SDS011;7062;49.792;9.946;2023-08-20T00:54:21;7.30;;;6.43;;
13975;SDS011;7062;49.792;9.946;2023-08-20T00:56:48;10.20;;;6.53;;
13975;SDS011;7062;49.792;9.946;2023-08-20T00:59:15;7.03;;;6.33;;
13975;SDS011;7062;49.792;9.946;2023-08-20T01:01:41;8.60;;;7.17;;
13975;SDS011;7062;49.792;9.946;2023-08-20T01:04:07;9.50;;;7.07;;
13975;SDS011;7062;49.792;9.946;2023-08-20T01:09:17;9.23;;;7.20;;
13975;SDS011;7062;49.792;9.946;2023-08-20T01:11:47;7.97;;;7.10;;
13975;SDS011;7062;49.792;9.946;2023-08-20T01:14:20;7.77;;;7.07;;
13975;SDS011;7062;49.792;9.946;2023-08-20T01:16:46;10.30;;;7.10;;
13975;SDS011;7062;49.792;9.946;2023-08-20T01:19:16;6.90;;;6.20;;
13975;SDS011;7062;49.792;9.946;2023-08-20T01:21:47;8.00;;;7.17;;
13975;SDS011;7062;49.792;9.946;2023-08-20T01:29:35;8.10;;;7.20;;
13975;SDS011;7062;49.792;9.946;2023-08-20T01:32:01;7.70;;;6.87;;
13975;SDS011;7062;49.792;9.946;2023-08-20T01:34:29;8.37;;;7.03;;
13975;SDS011;7062;49.792;9.946;2023-08-20T01:36:54;8.63;;;6.87;;
13975;SDS011;7062;49.792;9.946;2023-08-20T01:39:20;10.07;;;7.33;;
13975;SDS011;7062;49.792;9.946;2023-08-20T01:41:45;7.83;;;6.93;;
13975;SDS011;7062;49.792;9.946;2023-08-20T01:44:11;7.70;;;6.87;;
13975;SDS011;7062;49.792;9.946;2023-08-20T01:46:37;9.80;;;6.80;;
13975;SDS011;7062;49.792;9.946;2023-08-20T01:49:02;7.43;;;6.50;;
13975;SDS011;7062;49.792;9.946;2023-08-20T01:51:28;8.10;;;7.33;;
13975;SDS011;7062;49.792;9.946;2023-08-20T01:53:54;8.63;;;7.77;;
13975;SDS011;7062;49.792;9.946;2023-08-20T01:56:19;8.17;;;7.43;;
13975;SDS011;7062;49.792;9.946;2023-08-20T01:58:45;7.50;;;6.80;;
13975;SDS011;7062;49.792;9.946;2023-08-20T02:01:11;8.17;;;7.33;;
13975;SDS011;7062;49.792;9.946;2023-08-20T02:03:36;7.83;;;7.03;;
13975;SDS011;7062;49.792;9.946;2023-08-20T02:06:05;7.83;;;7.03;;
13975;SDS011;7062;49.792;9.946;2023-08-20T02:08:30;9.33;;;7.53;;
13975;SDS011;7062;49.792;9.946;2023-08-20T02:11:00;7.40;;;6.80;;
13975;SDS011;7062;49.792;9.946;2023-08-20T02:13:27;8.57;;;7.10;;
13975;SDS011;7062;49.792;9.946;2023-08-20T02:16:02;7.90;;;7.20;;
13975;SDS011;7062;49.792;9.946;2023-08-20T02:18:29;8.77;;;6.80;;
13975;SDS011;7062;49.792;9.946;2023-08-20T02:20:56;8.70;;;7.53;;
13975;SDS011;7062;49.792;9.946;2023-08-20T02:23:22;8.90;;;6.87;;
13975;SDS011;7062;49.792;9.946;2023-08-20T02:25:48;7.50;;;6.80;;
13975;SDS011;7062;49.792;9.946;2023-08-20T02:28:13;7.93;;;7.23;;
13975;SDS011;7062;49.792;9.946;2023-08-20T02:30:40;8.67;;;7.07;;
13975;SDS011;7062;49.792;9.946;2023-08-20T02:33:10;8.07;;;7.30;;
13975;SDS011;7062;49.792;9.946;2023-08-20T02:35:36;8.00;;;7.23;;
13975;SDS011;7062;49.792;9.946;2023-08-20T02:38:03;8.07;;;7.30;;
13975;SDS011;7062;49.792;9.946;2023-08-20T02:40:29;8.67;;;7.87;;
13975;SDS011;7062;49.792;9.946;2023-08-20T02:42:55;10.67;;;7.67;;
13975;SDS011;7062;49.792;9.946;2023-08-20T02:45:21;7.27;;;6.57;;
13975;SDS011;7062;49.792;9.946;2023-08-20T02:47:47;11.77;;;7.17;;
13975;SDS011;7062;49.792;9.946;2023-08-20T02:50:13;8.47;;;7.67;;
13975;SDS011;7062;49.792;9.946;2023-08-20T02:52:41;11.67;;;7.97;;
13975;SDS011;7062;49.792;9.946;2023-08-20T02:55:07;7.70;;;7.00;;
13975;SDS011;7062;49.792;9.946;2023-08-20T02:57:33;8.83;;;8.03;;
13975;SDS011;7062;49.792;9.946;2023-08-20T02:59:59;11.37;;;8.13;;
13975;SDS011;7062;49.792;9.946;2023-08-20T03:02:24;8.70;;;7.87;;
13975;SDS011;7062;49.792;9.946;2023-08-20T03:04:50;9.27;;;7.90;;
13975;SDS011;7062;49.792;9.946;2023-08-20T03:07:16;8.73;;;7.73;;
13975;SDS011;7062;49.792;9.946;2023-08-20T03:09:41;7.50;;;6.80;;
13975;SDS011;7062;49.792;9.946;2023-08-20T03:12:07;8.07;;;7.27;;
13975;SDS011;7062;49.792;9.946;2023-08-20T03:14:33;8.93;;;8.10;;
13975;SDS011;7062;49.792;9.946;2023-08-20T03:16:58;8.27;;;6.97;;
13975;SDS011;7062;49.792;9.946;2023-08-20T03:19:24;9.37;;;8.17;;
13975;SDS011;7062;49.792;9.946;2023-08-20T03:21:50;8.97;;;7.70;;
13975;SDS011;7062;49.792;9.946;2023-08-20T03:24:15;7.47;;;6.77;;
13975;SDS011;7062;49.792;9.946;2023-08-20T03:26:41;8.50;;;7.63;;
13975;SDS011;7062;49.792;9.946;2023-08-20T03:29:07;9.17;;;8.37;;
13975;SDS011;7062;49.792;9.946;2023-08-20T03:31:32;13.03;;;8.13;;
13975;SDS011;7062;49.792;9.946;2023-08-20T03:33:58;8.13;;;7.43;;
13975;SDS011;7062;49.792;9.946;2023-08-20T03:36:24;9.50;;;7.27;;
13975;SDS011;7062;49.792;9.946;2023-08-20T03:38:49;9.03;;;8.03;;
13975;SDS011;7062;49.792;9.946;2023-08-20T03:41:15;7.97;;;7.33;;
13975;SDS011;7062;49.792;9.946;2023-08-20T03:43:42;8.80;;;8.00;;
13975;SDS011;7062;49.792;9.946;2023-08-20T03:46:07;8.50;;;7.60;;
13975;SDS011;7062;49.792;9.946;2023-08-20T03:48:33;8.57;;;7.83;;
13975;SDS011;7062;49.792;9.946;2023-08-20T03:50:58;13.10;;;8.53;;
13975;SDS011;7062;49.792;9.946;2023-08-20T03:53:24;8.87;;;7.87;;
13975;SDS011;7062;49.792;9.946;2023-08-20T03:55:50;9.00;;;8.20;;
13975;SDS011;7062;49.792;9.946;2023-08-20T03:58:16;8.37;;;7.60;;
13975;SDS011;7062;49.792;9.946;2023-08-20T04:00:42;12.13;;;8.10;;
13975;SDS011;7062;49.792;9.946;2023-08-20T04:03:08;8.77;;;7.97;;
13975;SDS011;7062;49.792;9.946;2023-08-20T04:05:37;11.00;;;8.43;;
13975;SDS011;7062;49.792;9.946;2023-08-20T04:08:06;9.17;;;8.37;;
13975;SDS011;7062;49.792;9.946;2023-08-20T04:10:31;8.93;;;8.23;;
13975;SDS011;7062;49.792;9.946;2023-08-20T04:12:58;9.47;;;8.47;;
13975;SDS011;7062;49.792;9.946;2023-08-20T04:15:23;9.03;;;8.13;;
13975;SDS011;7062;49.792;9.946;2023-08-20T04:17:49;9.43;;;8.43;;
13975;SDS011;7062;49.792;9.946;2023-08-20T04:20:15;9.40;;;8.43;;
13975;SDS011;7062;49.792;9.946;2023-08-20T04:22:40;10.20;;;8.07;;
13975;SDS011;7062;49.792;9.946;2023-08-20T04:25:07;10.93;;;8.33;;
13975;SDS011;7062;49.792;9.946;2023-08-20T04:27:33;9.63;;;8.53;;
13975;SDS011;7062;49.792;9.946;2023-08-20T04:29:59;9.47;;;8.57;;
13975;SDS011;7062;49.792;9.946;2023-08-20T04:32:24;10.20;;;8.23;;
13975;SDS011;7062;49.792;9.946;2023-08-20T04:34:50;9.73;;;8.17;;
13975;SDS011;7062;49.792;9.946;2023-08-20T04:37:18;9.17;;;8.37;;
13975;SDS011;7062;49.792;9.946;2023-08-20T04:39:44;9.33;;;8.40;;
13975;SDS011;7062;49.792;9.946;2023-08-20T04:42:10;9.93;;;8.63;;
13975;SDS011;7062;49.792;9.946;2023-08-20T04:44:35;10.13;;;8.23;;
13975;SDS011;7062;49.792;9.946;2023-08-20T04:47:01;9.40;;;8.40;;
13975;SDS011;7062;49.792;9.946;2023-08-20T04:49:27;8.50;;;7.80;;
13975;SDS011;7062;49.792;9.946;2023-08-20T04:51:54;12.13;;;8.30;;
13975;SDS011;7062;49.792;9.946;2023-08-20T04:54:20;8.77;;;8.03;;
13975;SDS011;7062;49.792;9.946;2023-08-20T04:56:45;9.30;;;7.93;;
13975;SDS011;7062;49.792;9.946;2023-08-20T04:59:11;9.83;;;8.83;;
13975;SDS011;7062;49.792;9.946;2023-08-20T05:01:37;10.83;;;9.07;;
13975;SDS011;7062;49.792;9.946;2023-08-20T05:04:03;9.80;;;8.90;;
13975;SDS011;7062;49.792;9.946;2023-08-20T05:06:29;9.67;;;8.67;;
13975;SDS011;7062;49.792;9.946;2023-08-20T05:08:55;9.17;;;8.30;;
13975;SDS011;7062;49.792;9.946;2023-08-20T05:11:20;8.93;;;8.13;;
13975;SDS011;7062;49.792;9.946;2023-08-20T05:13:47;7.60;;;6.90;;
13975;SDS011;7062;49.792;9.946;2023-08-20T05:16:14;15.70;;;8.93;;
13975;SDS011;7062;49.792;9.946;2023-08-20T05:18:40;8.40;;;7.60;;
13975;SDS011;7062;49.792;9.946;2023-08-20T05:21:05;9.37;;;8.27;;
13975;SDS011;7062;49.792;9.946;2023-08-20T05:23:31;9.37;;;8.47;;
13975;SDS011;7062;49.792;9.946;2023-08-20T05:25:57;9.70;;;8.73;;
13975;SDS011;7062;49.792;9.946;2023-08-20T05:28:22;10.07;;;8.77;;
13975;SDS011;7062;49.792;9.946;2023-08-20T05:30:57;8.80;;;7.97;;
13975;SDS011;7062;49.792;9.946;2023-08-20T05:33:23;10.93;;;8.30;;
13975;SDS011;7062;49.792;9.946;2023-08-20T05:35:49;9.93;;;8.03;;
13975;SDS011;7062;49.792;9.946;2023-08-20T05:38:15;11.20;;;7.87;;
13975;SDS011;7062;49.792;9.946;2023-08-20T05:40:41;8.47;;;7.77;;
13975;SDS011;7062;49.792;9.946;2023-08-20T05:43:07;8.63;;;7.70;;
13975;SDS011;7062;49.792;9.946;2023-08-20T05:45:33;8.47;;;7.57;;
13975;SDS011;7062;49.792;9.946;2023-08-20T05:47:59;9.23;;;8.43;;
13975;SDS011;7062;49.792;9.946;2023-08-20T05:50:25;12.67;;;7.50;;
13975;SDS011;7062;49.792;9.946;2023-08-20T05:52:51;8.40;;;7.17;;
13975;SDS011;7062;49.792;9.946;2023-08-20T05:55:17;8.07;;;7.27;;
13975;SDS011;7062;49.792;9.946;2023-08-20T05:57:43;7.57;;;6.87;;
13975;SDS011;7062;49.792;9.946;2023-08-20T06:00:09;8.53;;;7.37;;
13975;SDS011;7062;49.792;9.946;2023-08-20T06:02:36;8.80;;;7.57;;
13975;SDS011;7062;49.792;9.946;2023-08-20T06:05:02;8.60;;;7.23;;
13975;SDS011;7062;49.792;9.946;2023-08-20T06:07:30;7.97;;;7.33;;
13975;SDS011;7062;49.792;9.946;2023-08-20T06:09:56;8.33;;;7.47;;
13975;SDS011;7062;49.792;9.946;2023-08-20T06:12:22;9.00;;;6.90;;
13975;SDS011;7062;49.792;9.946;2023-08-20T06:14:48;8.03;;;7.33;;
13975;SDS011;7062;49.792;9.946;2023-08-20T06:17:14;8.57;;;7.77;;
13975;SDS011;7062;49.792;9.946;2023-08-20T06:19:39;8.33;;;7.10;;
13975;SDS011;7062;49.792;9.946;2023-08-20T06:22:05;6.93;;;5.87;;
13975;SDS011;7062;49.792;9.946;2023-08-20T06:24:31;9.30;;;6.47;;
13975;SDS011;7062;49.792;9.946;2023-08-20T06:26:56;7.57;;;6.87;;
13975;SDS011;7062;49.792;9.946;2023-08-20T06:29:22;7.70;;;7.00;;
13975;SDS011;7062;49.792;9.946;2023-08-20T06:31:48;8.73;;;6.47;;
13975;SDS011;7062;49.792;9.946;2023-08-20T06:34:15;7.40;;;6.40;;
13975;SDS011;7062;49.792;9.946;2023-08-20T06:36:41;7.77;;;6.70;;
13975;SDS011;7062;49.792;9.946;2023-08-20T06:39:07;6.47;;;5.87;;
13975;SDS011;7062;49.792;9.946;2023-08-20T06:41:33;6.67;;;6.07;;
13975;SDS011;7062;49.792;9.946;2023-08-20T06:43:59;6.80;;;6.03;;
13975;SDS011;7062;49.792;9.946;2023-08-20T06:46:24;7.07;;;6.37;;
13975;SDS011;7062;49.792;9.946;2023-08-20T06:48:50;7.77;;;6.97;;
13975;SDS011;7062;49.792;9.946;2023-08-20T06:51:19;8.33;;;6.17;;
13975;SDS011;7062;49.792;9.946;2023-08-20T06:53:46;8.30;;;6.40;;
13975;SDS011;7062;49.792;9.946;2023-08-20T06:56:12;7.70;;;6.73;;
13975;SDS011;7062;49.792;9.946;2023-08-20T06:58:38;9.03;;;6.80;;
13975;SDS011;7062;49.792;9.946;2023-08-20T07:01:05;6.27;;;5.67;;
13975;SDS011;7062;49.792;9.946;2023-08-20T07:03:37;7.37;;;5.57;;
13975;SDS011;7062;49.792;9.946;2023-08-20T07:06:07;7.07;;;5.30;;
13975;SDS011;7062;49.792;9.946;2023-08-20T07:08:39;7.40;;;6.37;;
13975;SDS011;7062;49.792;9.946;2023-08-20T07:11:05;7.07;;;6.33;;
13975;SDS011;7062;49.792;9.946;2023-08-20T07:13:31;6.17;;;5.30;;
13975;SDS011;7062;49.792;9.946;2023-08-20T07:15:57;5.63;;;5.17;;
13975;SDS011;7062;49.792;9.946;2023-08-20T07:18:23;6.33;;;5.80;;
13975;SDS011;7062;49.792;9.946;2023-08-20T07:20:49;8.87;;;6.00;;
13975;SDS011;7062;49.792;9.946;2023-08-20T07:23:15;7.50;;;6.63;;
13975;SDS011;7062;49.792;9.946;2023-08-20T07:25:41;6.77;;;5.63;;
13975;SDS011;7062;49.792;9.946;2023-08-20T07:28:07;6.27;;;5.70;;
13975;SDS011;7062;49.792;9.946;2023-08-20T07:30:34;6.23;;;5.73;;
13975;SDS011;7062;49.792;9.946;2023-08-20T07:33:00;6.43;;;5.37;;
13975;SDS011;7062;49.792;9.946;2023-08-20T07:35:26;7.13;;;6.03;;
13975;SDS011;7062;49.792;9.946;2023-08-20T07:37:52;6.27;;;5.67;;
13975;SDS011;7062;49.792;9.946;2023-08-20T07:40:18;9.10;;;5.67;;
13975;SDS011;7062;49.792;9.946;2023-08-20T07:42:44;6.93;;;5.93;;
13975;SDS011;7062;49.792;9.946;2023-08-20T07:45:10;5.33;;;4.80;;
13975;SDS011;7062;49.792;9.946;2023-08-20T07:47:39;5.60;;;5.00;;
13975;SDS011;7062;49.792;9.946;2023-08-20T07:50:05;6.77;;;6.07;;
13975;SDS011;7062;49.792;9.946;2023-08-20T07:52:31;5.47;;;4.93;;
13975;SDS011;7062;49.792;9.946;2023-08-20T07:54:57;7.23;;;5.80;;
13975;SDS011;7062;49.792;9.946;2023-08-20T07:57:23;6.83;;;5.37;;
13975;SDS011;7062;49.792;9.946;2023-08-20T07:59:49;6.60;;;5.90;;
13975;SDS011;7062;49.792;9.946;2023-08-20T08:02:15;6.23;;;5.67;;
13975;SDS011;7062;49.792;9.946;2023-08-20T08:04:41;7.70;;;5.40;;
13975;SDS011;7062;49.792;9.946;2023-08-20T08:07:07;5.63;;;5.07;;
13975;SDS011;7062;49.792;9.946;2023-08-20T08:09:33;8.63;;;5.67;;
13975;SDS011;7062;49.792;9.946;2023-08-20T08:11:59;5.63;;;5.13;;
13975;SDS011;7062;49.792;9.946;2023-08-20T08:14:26;7.80;;;5.67;;
13975;SDS011;7062;49.792;9.946;2023-08-20T08:16:51;8.67;;;5.10;;
13975;SDS011;7062;49.792;9.946;2023-08-20T08:19:17;6.10;;;5.60;;
13975;SDS011;7062;49.792;9.946;2023-08-20T08:21:44;5.90;;;5.10;;
13975;SDS011;7062;49.792;9.946;2023-08-20T08:24:11;6.00;;;5.47;;
13975;SDS011;7062;49.792;9.946;2023-08-20T08:26:37;6.47;;;5.13;;
13975;SDS011;7062;49.792;9.946;2023-08-20T08:29:03;6.53;;;6.00;;
13975;SDS011;7062;49.792;9.946;2023-08-20T08:31:30;5.63;;;5.13;;
13975;SDS011;7062;49.792;9.946;2023-08-20T08:33:55;7.77;;;5.87;;
13975;SDS011;7062;49.792;9.946;2023-08-20T08:36:21;8.83;;;6.50;;
13975;SDS011;7062;49.792;9.946;2023-08-20T08:38:49;6.47;;;5.87;;
13975;SDS011;7062;49.792;9.946;2023-08-20T08:41:19;7.47;;;6.60;;
13975;SDS011;7062;49.792;9.946;2023-08-20T08:43:49;11.07;;;7.17;;
13975;SDS011;7062;49.792;9.946;2023-08-20T08:46:14;6.50;;;6.00;;
13975;SDS011;7062;49.792;9.946;2023-08-20T08:48:42;10.67;;;6.00;;
13975;SDS011;7062;49.792;9.946;2023-08-20T08:51:09;8.27;;;6.20;;
13975;SDS011;7062;49.792;9.946;2023-08-20T08:53:35;7.43;;;5.70;;
13975;SDS011;7062;49.792;9.946;2023-08-20T08:56:01;6.90;;;6.30;;
13975;SDS011;7062;49.792;9.946;2023-08-20T08:58:28;6.53;;;5.67;;
13975;SDS011;7062;49.792;9.946;2023-08-20T09:00:54;8.43;;;6.50;;
13975;SDS011;7062;49.792;9.946;2023-08-20T09:03:20;7.67;;;6.00;;
13975;SDS011;7062;49.792;9.946;2023-08-20T09:05:49;6.37;;;5.77;;
13975;SDS011;7062;49.792;9.946;2023-08-20T09:08:19;8.43;;;5.80;;
13975;SDS011;7062;49.792;9.946;2023-08-20T09:10:45;6.13;;;5.53;;
13975;SDS011;7062;49.792;9.946;2023-08-20T09:13:14;6.30;;;5.70;;
13975;SDS011;7062;49.792;9.946;2023-08-20T09:15:40;9.03;;;5.97;;
13975;SDS011;7062;49.792;9.946;2023-08-20T09:18:08;6.63;;;6.03;;
13975;SDS011;7062;49.792;9.946;2023-08-20T09:20:35;8.87;;;6.23;;
13975;SDS011;7062;49.792;9.946;2023-08-20T09:23:02;8.07;;;6.73;;
13975;SDS011;7062;49.792;9.946;2023-08-20T09:25:28;6.67;;;6.13;;
13975;SDS011;7062;49.792;9.946;2023-08-20T09:27:54;5.90;;;5.40;;
13975;SDS011;7062;49.792;9.946;2023-08-20T09:30:20;8.80;;;6.63;;
13975;SDS011;7062;49.792;9.946;2023-08-20T09:32:45;5.70;;;5.23;;
13975;SDS011;7062;49.792;9.946;2023-08-20T09:35:27;6.73;;;5.83;;
13975;SDS011;7062;49.792;9.946;2023-08-20T09:37:58;7.53;;;6.77;;
13975;SDS011;7062;49.792;9.946;2023-08-20T09:40:24;7.83;;;6.00;;
13975;SDS011;7062;49.792;9.946;2023-08-20T09:42:51;6.37;;;5.87;;
13975;SDS011;7062;49.792;9.946;2023-08-20T09:45:19;7.90;;;5.50;;
13975;SDS011;7062;49.792;9.946;2023-08-20T09:47:45;7.00;;;6.30;;
13975;SDS011;7062;49.792;9.946;2023-08-20T09:50:15;6.53;;;5.97;;
13975;SDS011;7062;49.792;9.946;2023-08-20T09:52:55;7.10;;;6.40;;
13975;SDS011;7062;49.792;9.946;2023-08-20T09:55:29;6.93;;;6.43;;
13975;SDS011;7062;49.792;9.946;2023-08-20T09:57:59;8.43;;;7.50;;
13975;SDS011;7062;49.792;9.946;2023-08-20T10:00:27;8.37;;;7.67;;
13975;SDS011;7062;49.792;9.946;2023-08-20T10:02:53;9.53;;;8.63;;
13975;SDS011;7062;49.792;9.946;2023-08-20T10:05:20;10.00;;;8.50;;
13975;SDS011;7062;49.792;9.946;2023-08-20T10:07:47;10.37;;;8.57;;
13975;SDS011;7062;49.792;9.946;2023-08-20T10:10:14;8.97;;;8.17;;
13975;SDS011;7062;49.792;9.946;2023-08-20T10:12:41;10.73;;;8.63;;
13975;SDS011;7062;49.792;9.946;2023-08-20T10:15:12;11.53;;;8.83;;
13975;SDS011;7062;49.792;9.946;2023-08-20T10:17:39;9.23;;;8.43;;
13975;SDS011;7062;49.792;9.946;2023-08-20T10:20:07;9.40;;;8.20;;
13975;SDS011;7062;49.792;9.946;2023-08-20T10:22:43;9.73;;;8.87;;
13975;SDS011;7062;49.792;9.946;2023-08-20T10:25:28;8.27;;;7.57;;
13975;SDS011;7062;49.792;9.946;2023-08-20T10:27:57;8.83;;;8.23;;
13975;SDS011;7062;49.792;9.946;2023-08-20T10:33:31;9.83;;;9.07;;
13975;SDS011;7062;49.792;9.946;2023-08-20T10:35:59;9.03;;;8.23;;
13975;SDS011;7062;49.792;9.946;2023-08-20T10:38:38;9.57;;;8.77;;
13975;SDS011;7062;49.792;9.946;2023-08-20T10:41:07;9.13;;;8.43;;
13975;SDS011;7062;49.792;9.946;2023-08-20T10:43:38;8.80;;;8.17;;
13975;SDS011;7062;49.792;9.946;2023-08-20T10:46:16;9.23;;;8.23;;
13975;SDS011;7062;49.792;9.946;2023-08-20T10:48:50;8.93;;;7.63;;
13975;SDS011;7062;49.792;9.946;2023-08-20T10:51:18;8.37;;;7.40;;
13975;SDS011;7062;49.792;9.946;2023-08-20T10:59:30;8.37;;;7.53;;
13975;SDS011;7062;49.792;9.946;2023-08-20T11:01:56;9.97;;;8.43;;
13975;SDS011;7062;49.792;9.946;2023-08-20T11:04:23;9.57;;;8.77;;
13975;SDS011;7062;49.792;9.946;2023-08-20T11:06:54;9.43;;;8.43;;
13975;SDS011;7062;49.792;9.946;2023-08-20T11:09:21;8.90;;;8.30;;
13975;SDS011;7062;49.792;9.946;2023-08-20T11:11:55;10.60;;;8.43;;
13975;SDS011;7062;49.792;9.946;2023-08-20T11:14:21;9.57;;;8.90;;
13975;SDS011;7062;49.792;9.946;2023-08-20T11:16:47;8.63;;;7.83;;
13975;SDS011;7062;49.792;9.946;2023-08-20T11:19:14;8.80;;;8.10;;
13975;SDS011;7062;49.792;9.946;2023-08-20T11:21:43;8.93;;;8.10;;
13975;SDS011;7062;49.792;9.946;2023-08-20T11:24:09;8.80;;;8.10;;
13975;SDS011;7062;49.792;9.946;2023-08-20T11:26:36;7.90;;;7.40;;
13975;SDS011;7062;49.792;9.946;2023-08-20T11:29:08;8.07;;;7.57;;
13975;SDS011;7062;49.792;9.946;2023-08-20T11:31:35;9.97;;;7.93;;
13975;SDS011;7062;49.792;9.946;2023-08-20T11:34:02;7.77;;;7.10;;
13975;SDS011;7062;49.792;9.946;2023-08-20T11:36:28;8.47;;;7.70;;
13975;SDS011;7062;49.792;9.946;2023-08-20T11:38:55;8.00;;;7.30;;
13975;SDS011;7062;49.792;9.946;2023-08-20T11:41:21;7.95;;;7.35;;
13975;SDS011;7062;49.792;9.946;2023-08-20T11:43:47;7.28;;;6.60;;
13975;SDS011;7062;49.792;9.946;2023-08-20T11:46:14;7.88;;;6.97;;
13975;SDS011;7062;49.792;9.946;2023-08-20T11:51:35;6.97;;;6.43;;
13975;SDS011;7062;49.792;9.946;2023-08-20T11:54:01;7.00;;;6.50;;
13975;SDS011;7062;49.792;9.946;2023-08-20T11:56:27;9.98;;;6.60;;
13975;SDS011;7062;49.792;9.946;2023-08-20T11:58:52;6.80;;;6.22;;
13975;SDS011;7062;49.792;9.946;2023-08-20T12:01:24;6.95;;;6.35;;
13975;SDS011;7062;49.792;9.946;2023-08-20T12:03:50;7.93;;;7.10;;
13975;SDS011;7062;49.792;9.946;2023-08-20T12:06:19;6.22;;;5.72;;
13975;SDS011;7062;49.792;9.946;2023-08-20T12:08:47;6.80;;;6.22;;
13975;SDS011;7062;49.792;9.946;2023-08-20T12:11:13;7.47;;;6.88;;
13975;SDS011;7062;49.792;9.946;2023-08-20T12:13:40;6.63;;;6.22;;
13975;SDS011;7062;49.792;9.946;2023-08-20T12:16:06;6.57;;;6.13;;
13975;SDS011;7062;49.792;9.946;2023-08-20T12:18:32;6.28;;;5.68;;
13975;SDS011;7062;49.792;9.946;2023-08-20T12:20:57;7.47;;;6.65;;
13975;SDS011;7062;49.792;9.946;2023-08-20T12:23:23;6.78;;;6.35;;
13975;SDS011;7062;49.792;9.946;2023-08-20T12:25:51;6.72;;;6.13;;
13975;SDS011;7062;49.792;9.946;2023-08-20T12:28:17;6.38;;;5.97;;
13975;SDS011;7062;49.792;9.946;2023-08-20T12:30:43;6.70;;;6.22;;
13975;SDS011;7062;49.792;9.946;2023-08-20T12:33:09;6.10;;;5.60;;
13975;SDS011;7062;49.792;9.946;2023-08-20T12:35:36;7.80;;;7.20;;
13975;SDS011;7062;49.792;9.946;2023-08-20T12:38:01;7.63;;;6.88;;
13975;SDS011;7062;49.792;9.946;2023-08-20T12:40:28;9.82;;;6.65;;
13975;SDS011;7062;49.792;9.946;2023-08-20T12:42:54;6.72;;;6.20;;
13975;SDS011;7062;49.792;9.946;2023-08-20T12:45:19;6.68;;;6.18;;
13975;SDS011;7062;49.792;9.946;2023-08-20T12:47:45;6.93;;;6.35;;
13975;SDS011;7062;49.792;9.946;2023-08-20T12:50:11;7.45;;;5.65;;
13975;SDS011;7062;49.792;9.946;2023-08-20T12:52:38;7.00;;;6.50;;
13975;SDS011;7062;49.792;9.946;2023-08-20T12:55:04;7.13;;;6.47;;
13975;SDS011;7062;49.792;9.946;2023-08-20T12:57:30;6.57;;;6.13;;
13975;SDS011;7062;49.792;9.946;2023-08-20T12:59:56;6.20;;;5.68;;
13975;SDS011;7062;49.792;9.946;2023-08-20T13:02:21;6.55;;;6.10;;
13975;SDS011;7062;49.792;9.946;2023-08-20T13:04:47;6.07;;;5.57;;
13975;SDS011;7062;49.792;9.946;2023-08-20T13:07:13;6.32;;;5.72;;
13975;SDS011;7062;49.792;9.946;2023-08-20T13:09:39;5.82;;;5.43;;
13975;SDS011;7062;49.792;9.946;2023-08-20T13:12:05;5.75;;;5.25;;
13975;SDS011;7062;49.792;9.946;2023-08-20T13:14:35;8.45;;;6.15;;
13975;SDS011;7062;49.792;9.946;2023-08-20T13:17:01;6.28;;;5.72;;
13975;SDS011;7062;49.792;9.946;2023-08-20T13:19:27;6.75;;;6.20;;
13975;SDS011;7062;49.792;9.946;2023-08-20T13:21:53;6.55;;;6.00;;
13975;SDS011;7062;49.792;9.946;2023-08-20T13:24:18;6.18;;;5.68;;
13975;SDS011;7062;49.792;9.946;2023-08-20T13:26:44;6.95;;;6.45;;
13975;SDS011;7062;49.792;9.946;2023-08-20T13:29:10;6.43;;;5.68;;
13975;SDS011;7062;49.792;9.946;2023-08-20T13:31:36;5.97;;;5.45;;
13975;SDS011;7062;49.792;9.946;2023-08-20T13:34:02;5.57;;;5.18;;
13975;SDS011;7062;49.792;9.946;2023-08-20T13:36:27;6.03;;;5.47;;
13975;SDS011;7062;49.792;9.946;2023-08-20T13:38:53;6.13;;;5.72;;
13975;SDS011;7062;49.792;9.946;2023-08-20T13:41:18;7.03;;;6.40;;
13975;SDS011;7062;49.792;9.946;2023-08-20T13:43:44;5.95;;;5.47;;
13975;SDS011;7062;49.792;9.946;2023-08-20T13:46:10;7.70;;;6.07;;
13975;SDS011;7062;49.792;9.946;2023-08-20T13:48:35;6.60;;;6.10;;
13975;SDS011;7062;49.792;9.946;2023-08-20T13:51:01;6.78;;;6.13;;
13975;SDS011;7062;49.792;9.946;2023-08-20T13:53:27;6.15;;;5.75;;
13975;SDS011;7062;49.792;9.946;2023-08-20T13:55:52;6.22;;;5.47;;
13975;SDS011;7062;49.792;9.946;2023-08-20T13:58:20;6.35;;;5.85;;
13975;SDS011;7062;49.792;9.946;2023-08-20T14:00:46;6.80;;;6.10;;
13975;SDS011;7062;49.792;9.946;2023-08-20T14:03:11;6.93;;;6.40;;
13975;SDS011;7062;49.792;9.946;2023-08-20T14:05:37;5.82;;;5.30;;
13975;SDS011;7062;49.792;9.946;2023-08-20T14:08:03;7.32;;;6.35;;
13975;SDS011;7062;49.792;9.946;2023-08-20T14:10:29;5.50;;;5.15;;
13975;SDS011;7062;49.792;9.946;2023-08-20T14:12:54;6.93;;;5.55;;
13975;SDS011;7062;49.792;9.946;2023-08-20T14:15:20;6.20;;;5.78;;
13975;SDS011;7062;49.792;9.946;2023-08-20T14:17:46;6.47;;;5.97;;
13975;SDS011;7062;49.792;9.946;2023-08-20T14:20:12;6.50;;;6.07;;
13975;SDS011;7062;49.792;9.946;2023-08-20T14:22:38;6.80;;;6.35;;
13975;SDS011;7062;49.792;9.946;2023-08-20T14:25:04;6.32;;;5.72;;
13975;SDS011;7062;49.792;9.946;2023-08-20T14:27:30;6.38;;;5.97;;
13975;SDS011;7062;49.792;9.946;2023-08-20T14:29:56;6.50;;;6.13;;
13975;SDS011;7062;49.792;9.946;2023-08-20T14:32:21;7.10;;;6.50;;
13975;SDS011;7062;49.792;9.946;2023-08-20T14:34:47;6.50;;;6.00;;
13975;SDS011;7062;49.792;9.946;2023-08-20T14:37:13;6.32;;;5.82;;
13975;SDS011;7062;49.792;9.946;2023-08-20T14:39:39;6.57;;;6.18;;
13975;SDS011;7062;49.792;9.946;2023-08-20T14:42:05;6.38;;;5.95;;
13975;SDS011;7062;49.792;9.946;2023-08-20T14:44:30;6.47;;;6.03;;
13975;SDS011;7062;49.792;9.946;2023-08-20T14:46:56;7.05;;;6.45;;
13975;SDS011;7062;49.792;9.946;2023-08-20T14:49:22;6.57;;;5.93;;
13975;SDS011;7062;49.792;9.946;2023-08-20T14:51:48;7.00;;;6.38;;
13975;SDS011;7062;49.792;9.946;2023-08-20T14:54:14;6.32;;;5.55;;
13975;SDS011;7062;49.792;9.946;2023-08-20T14:56:39;6.88;;;6.20;;
13975;SDS011;7062;49.792;9.946;2023-08-20T14:59:05;7.60;;;6.85;;
13975;SDS011;7062;49.792;9.946;2023-08-20T15:01:30;6.05;;;5.50;;
13975;SDS011;7062;49.792;9.946;2023-08-20T15:03:56;9.57;;;5.95;;
13975;SDS011;7062;49.792;9.946;2023-08-20T15:06:22;5.95;;;5.40;;
13975;SDS011;7062;49.792;9.946;2023-08-20T15:08:49;6.35;;;5.78;;
13975;SDS011;7062;49.792;9.946;2023-08-20T15:11:15;6.03;;;5.53;;
13975;SDS011;7062;49.792;9.946;2023-08-20T15:13:41;7.60;;;5.88;;
13975;SDS011;7062;49.792;9.946;2023-08-20T15:16:06;5.68;;;5.28;;